• Join FlightAware (Why Join?)
  • Login
  • US Flag 
02:41PM EDT


 

Airport Tracker/Info


-or-


 

Live Flight TrackerFlight Track Log ✈ SKW5500 ✈ 25-Apr-2013 ✈ KASE - KDEN

Flight Track Log - Related Links

Times and Time Zones

All times are in EDT time to prevent confusion due to time zone crossing. See the SKW5500 flight status page for this flight to view local times or setup timezone preferences in your user account.

Time Position Orientation Groundspeed Altitude Reporting Facility
EDT Latitude Longitude Course Direction KTS MPH feet Rate Location/Type
06:35PM 39.2617 -106.8803 90° East 191 220 9,500  Level Denver Center
06:36PM 39.2769 -106.9567 285° West 219 252 12,800 2,700 Climbing Denver Center
06:37PM 39.3361 -106.9469 North 270 311 15,200 1,920 Climbing Denver Center
06:38PM 39.3876 -106.6609 101° East  Level FlightAware Approximate
06:38PM 39.3472 -106.8061 84° East 337 388 16,800  Level Denver Center
06:39PM 39.3639 -106.5363 104° East  Level FlightAware Approximate
06:39PM 39.3481 -106.6719 89° East 370 426 19,900  Level Denver Center
06:40PM 39.3333 -106.4166 90° East  Level FlightAware Approximate
06:41PM 39.3558 -106.3764 88° East 428 493 21,000  Level Denver Center
06:42PM 39.3650 -106.1928 86° East 453 521 21,000  Level Denver Center
06:43PM 39.3742 -106.0256 86° East 433 498 21,000  Level Denver Center
06:44PM 39.3794 -105.8719 87° East 429 494 21,000  Level Denver Center
06:45PM 39.3858 -105.7114 87° East 443 510 21,000  Level Denver Center
06:46PM 39.3944 -105.5456 86° East 453 521 21,000 -720 Level Denver Center
06:47PM 39.4392 -105.3956 69° East 437 503 19,600 -1,620 Descending Denver Center
06:48PM 39.5072 -105.2697 55° Northeast 430 495 17,700 -1,500 Descending Denver Center
06:49PM 39.5711 -105.1469 56° Northeast 381 438 16,500 -1,320 Descending Denver Center
06:50PM 39.6294 -105.0364 56° Northeast 375 432 15,000 -1,440 Descending Denver Center
06:51PM 39.6917 -104.9156 56° Northeast 375 432 13,600 -1,380 Descending Denver Center
06:52PM 39.7694 -104.8425 36° Northeast 357 411 12,200 -1,320 Descending Denver Center
06:53PM 39.8697 -104.8414 360° North 328 377 11,000 -900 Descending Denver Center
06:54PM 39.9436 -104.8350 North 268 308 10,400 -600 Descending Denver Center